Time;durP1;ratioP1;P1;durP2;ratioP2;P2;SDS_P1;SDS_P2;PMS_P1;PMS_P2;Temp;Humidity;BMP_temperature;BMP_pressure;BME280_temperature;BME280_humidity;BME280_pressure;Samples;Min_cycle;Max_cycle;Signal;HPM_P1;HPM_P2
2024/03/09 00:00:57;;;;;;;7.82;5.20;;;6.50;96.90;;;;;;5058293;28;20180;-60
2024/03/09 00:03:23;;;;;;;6.33;4.67;;;6.60;96.60;;;;;;5051638;28;20624;-60
2024/03/09 00:05:49;;;;;;;7.63;3.70;;;6.70;96.40;;;;;;5053080;28;20173;-60
2024/03/09 00:08:17;;;;;;;6.60;5.07;;;6.60;96.50;;;;;;5052910;28;20283;-60
2024/03/09 00:10:44;;;;;;;9.23;3.90;;;6.60;96.50;;;;;;5053403;28;20725;-60
2024/03/09 00:13:10;;;;;;;7.32;4.38;;;6.60;96.60;;;;;;5053085;28;20199;-60
2024/03/09 00:15:36;;;;;;;9.05;4.75;;;6.60;96.60;;;;;;5053100;28;20336;-60
2024/03/09 00:18:03;;;;;;;8.15;4.80;;;6.60;96.60;;;;;;5052566;28;20197;-59
2024/03/09 00:20:34;;;;;;;6.30;4.70;;;6.60;96.60;;;;;;5053482;28;20194;-59
2024/03/09 00:23:01;;;;;;;6.32;4.85;;;6.50;96.50;;;;;;5052524;28;20181;-60
2024/03/09 00:25:31;;;;;;;8.85;5.57;;;6.50;96.60;;;;;;5052593;28;20176;-60
2024/03/09 00:27:57;;;;;;;6.65;4.07;;;6.50;96.80;;;;;;5052586;28;20188;-60
2024/03/09 00:30:29;;;;;;;6.35;5.70;;;6.30;97.20;;;;;;5052778;28;20182;-60
2024/03/09 00:32:58;;;;;;;12.13;5.85;;;6.30;97.30;;;;;;5052711;28;20183;-60
2024/03/09 00:35:25;;;;;;;6.28;5.50;;;6.20;97.50;;;;;;5034839;28;20248;-60
2024/03/09 00:37:52;;;;;;;6.30;5.35;;;6.30;97.60;;;;;;5052388;28;20588;-60
2024/03/09 00:40:17;;;;;;;9.00;6.38;;;6.40;97.50;;;;;;5034616;28;20195;-60
2024/03/09 00:42:47;;;;;;;9.17;6.27;;;6.50;97.20;;;;;;5052589;28;20276;-60
2024/03/09 00:45:15;;;;;;;14.63;7.75;;;6.40;97.10;;;;;;5052399;28;20170;-60
2024/03/09 00:47:46;;;;;;;9.38;7.38;;;6.40;96.90;;;;;;5052376;28;20647;-60
2024/03/09 00:50:13;;;;;;;11.23;7.43;;;6.30;97.10;;;;;;5052276;28;20227;-60
2024/03/09 00:52:39;;;;;;;9.35;7.03;;;6.30;97.00;;;;;;5052340;28;20178;-60
2024/03/09 00:55:10;;;;;;;10.18;7.70;;;6.30;97.40;;;;;;5052336;28;20209;-60
2024/03/09 00:57:39;;;;;;;9.75;6.35;;;6.40;96.90;;;;;;5052051;28;20681;-60
2024/03/09 01:00:13;;;;;;;8.60;5.57;;;6.60;96.40;;;;;;5051888;28;20272;-60
2024/03/09 01:02:39;;;;;;;11.40;7.72;;;6.70;95.90;;;;;;5034351;28;20590;-60
2024/03/09 01:05:06;;;;;;;13.70;7.03;;;6.90;95.30;;;;;;5052054;28;20164;-60
2024/03/09 01:07:32;;;;;;;7.47;5.75;;;7.00;94.70;;;;;;5051965;28;20180;-60
2024/03/09 01:09:58;;;;;;;16.25;6.70;;;7.10;94.30;;;;;;5051820;28;20208;-60
2024/03/09 01:12:26;;;;;;;10.35;6.38;;;7.20;93.90;;;;;;5051861;28;20183;-60
2024/03/09 01:14:52;;;;;;;8.75;5.47;;;7.30;94.00;;;;;;5034097;28;20179;-60
2024/03/09 01:17:20;;;;;;;5.68;4.30;;;7.30;94.00;;;;;;5051984;28;20224;-60
2024/03/09 01:19:47;;;;;;;6.72;4.70;;;7.30;94.10;;;;;;5051598;28;20193;-60
2024/03/09 01:22:13;;;;;;;14.13;6.68;;;7.20;94.40;;;;;;5051748;28;20190;-60
2024/03/09 01:24:42;;;;;;;7.37;5.40;;;7.20;94.40;;;;;;5051901;28;20177;-60
2024/03/09 01:27:08;;;;;;;5.65;4.63;;;7.10;94.30;;;;;;5051731;28;20177;-60
2024/03/09 01:29:34;;;;;;;5.53;4.78;;;7.20;94.40;;;;;;5051301;28;20218;-60
2024/03/09 01:32:05;;;;;;;8.20;4.73;;;7.20;94.40;;;;;;5051688;28;20244;-60
2024/03/09 01:34:30;;;;;;;6.38;5.32;;;7.30;94.30;;;;;;5051581;28;20196;-60
2024/03/09 01:36:56;;;;;;;5.60;4.60;;;7.30;94.00;;;;;;5051535;28;20205;-60
2024/03/09 01:39:23;;;;;;;5.33;3.43;;;7.30;93.90;;;;;;5051150;28;20431;-60
2024/03/09 01:41:50;;;;;;;6.25;4.32;;;7.40;94.00;;;;;;5051504;28;20169;-60
2024/03/09 01:44:16;;;;;;;7.05;5.28;;;7.40;94.10;;;;;;5051464;28;20705;-59
2024/03/09 01:46:42;;;;;;;5.97;3.60;;;7.40;94.20;;;;;;5051450;28;20253;-60
2024/03/09 01:49:08;;;;;;;7.70;4.38;;;7.30;94.10;;;;;;5050944;28;20303;-60
2024/03/09 01:51:35;;;;;;;4.43;3.95;;;7.30;94.00;;;;;;5051416;28;20169;-60
2024/03/09 01:54:10;;;;;;;6.35;3.75;;;7.20;94.20;;;;;;5051185;28;20226;-60
2024/03/09 01:56:38;;;;;;;7.70;3.63;;;7.20;94.40;;;;;;5051331;28;20240;-60
2024/03/09 01:59:07;;;;;;;6.18;3.85;;;7.10;94.30;;;;;;5050870;28;20195;-60
2024/03/09 02:01:35;;;;;;;4.68;4.03;;;7.10;94.30;;;;;;5051340;28;20172;-60
2024/03/09 02:04:00;;;;;;;5.38;3.58;;;6.90;94.50;;;;;;5051276;28;20665;-60
2024/03/09 02:06:32;;;;;;;3.53;3.00;;;6.60;94.60;;;;;;5051029;28;20177;-60
2024/03/09 02:08:59;;;;;;;4.88;2.53;;;6.60;94.90;;;;;;5050847;28;20431;-60
2024/03/09 02:11:29;;;;;;;7.32;3.00;;;6.50;95.10;;;;;;5051248;28;20181;-60
2024/03/09 02:13:56;;;;;;;6.20;3.05;;;6.60;95.00;;;;;;5051157;28;20180;-60
2024/03/09 02:16:22;;;;;;;5.30;3.33;;;6.70;94.80;;;;;;5033251;28;20178;-60
2024/03/09 02:18:48;;;;;;;4.25;3.00;;;6.80;94.70;;;;;;5050750;28;20292;-60
2024/03/09 02:21:15;;;;;;;5.77;3.60;;;6.80;94.70;;;;;;5050881;28;20211;-60
2024/03/09 02:23:42;;;;;;;3.30;3.00;;;6.70;94.90;;;;;;5051044;28;20201;-60
2024/03/09 02:26:09;;;;;;;5.53;2.70;;;6.50;95.00;;;;;;5051019;28;20175;-60
2024/03/09 02:28:34;;;;;;;2.97;2.22;;;6.40;95.30;;;;;;5050704;28;20293;-60
2024/03/09 02:31:01;;;;;;;6.87;3.13;;;6.30;95.50;;;;;;5051028;28;20253;-60
2024/03/09 02:33:28;;;;;;;4.20;2.90;;;6.40;95.70;;;;;;5050880;28;20178;-60
2024/03/09 02:35:54;;;;;;;3.55;3.25;;;6.40;95.70;;;;;;5050877;28;20182;-60
2024/03/09 02:38:20;;;;;;;4.38;2.70;;;6.40;95.50;;;;;;5050579;28;20206;-60
2024/03/09 02:40:47;;;;;;;3.20;2.90;;;6.50;95.30;;;;;;5051006;28;20172;-62
2024/03/09 02:43:13;;;;;;;4.00;2.95;;;6.30;95.40;;;;;;5050929;28;20408;-60
2024/03/09 02:45:39;;;;;;;4.40;3.30;;;6.30;95.40;;;;;;5050733;28;20647;-60
2024/03/09 02:48:05;;;;;;;3.50;2.33;;;6.10;95.40;;;;;;5053729;28;20902;-59
2024/03/09 02:50:31;;;;;;;5.20;2.72;;;5.90;95.60;;;;;;5054478;28;20218;-60
2024/03/09 02:52:59;;;;;;;7.47;3.50;;;5.70;95.90;;;;;;5054840;28;20178;-60
2024/03/09 02:55:26;;;;;;;4.22;3.83;;;5.70;96.30;;;;;;5054634;28;20251;-60
2024/03/09 02:57:52;;;;;;;7.30;4.78;;;5.80;96.20;;;;;;5054147;28;20284;-60
2024/03/09 03:00:23;;;;;;;8.10;5.63;;;5.80;95.90;;;;;;5054494;28;20229;-60
2024/03/09 03:05:33;;;;;;;6.30;4.20;;;5.60;95.90;;;;;;5054634;28;20231;-60
2024/03/09 03:08:04;;;;;;;7.60;4.60;;;5.50;96.20;;;;;;5054139;28;20167;-60
2024/03/09 03:10:29;;;;;;;6.70;4.75;;;5.50;96.30;;;;;;5054213;28;20263;-59
2024/03/09 03:12:55;;;;;;;5.77;5.17;;;5.40;96.30;;;;;;5054105;28;20648;-60
2024/03/09 03:15:21;;;;;;;4.67;3.37;;;5.40;96.30;;;;;;5054220;28;20494;-58
2024/03/09 03:17:47;;;;;;;4.20;3.03;;;5.40;96.30;;;;;;5053746;28;20213;-60
2024/03/09 03:20:17;;;;;;;4.60;2.77;;;5.30;96.30;;;;;;5054229;28;20205;-59
2024/03/09 03:22:45;;;;;;;6.05;3.85;;;5.20;96.20;;;;;;5054150;28;20697;-58
2024/03/09 03:25:11;;;;;;;7.22;4.47;;;5.10;96.10;;;;;;5054370;28;20586;-60
2024/03/09 03:27:37;;;;;;;4.70;4.30;;;4.80;96.30;;;;;;5053874;28;20182;-60
2024/03/09 03:30:06;;;;;;;8.20;4.90;;;4.80;96.70;;;;;;5054160;28;20839;-60
2024/03/09 03:32:32;;;;;;;10.23;3.45;;;4.70;96.90;;;;;;5053938;28;20224;-60
2024/03/09 03:34:57;;;;;;;4.63;3.63;;;4.70;96.90;;;;;;5053810;28;20178;-60
2024/03/09 03:37:24;;;;;;;5.43;3.70;;;4.40;96.70;;;;;;5053683;28;20592;-60
2024/03/09 03:39:50;;;;;;;6.75;4.45;;;4.30;97.60;;;;;;5053485;28;20266;-60
2024/03/09 03:42:15;;;;;;;7.53;4.53;;;4.30;97.80;;;;;;5053622;28;20261;-60
2024/03/09 03:44:42;;;;;;;11.17;5.33;;;4.40;97.70;;;;;;5053668;28;20170;-60
2024/03/09 03:47:07;;;;;;;6.30;4.70;;;4.40;97.60;;;;;;5053645;28;20170;-60
2024/03/09 03:49:34;;;;;;;8.87;5.17;;;4.30;97.60;;;;;;5053054;28;20206;-60
2024/03/09 03:52:00;;;;;;;4.82;3.90;;;4.30;97.80;;;;;;5053572;28;20174;-60
2024/03/09 03:54:26;;;;;;;7.75;4.25;;;4.30;97.70;;;;;;5051958;28;20178;-60
2024/03/09 03:56:55;;;;;;;6.93;3.60;;;4.10;97.80;;;;;;5053473;28;20167;-60
2024/03/09 03:59:20;;;;;;;9.07;5.97;;;4.10;97.90;;;;;;5052380;28;20432;-60
2024/03/09 04:01:46;;;;;;;7.43;4.70;;;4.10;97.90;;;;;;5053157;28;20197;-60
2024/03/09 04:04:12;;;;;;;7.07;4.27;;;4.10;97.80;;;;;;5053280;28;20174;-60
2024/03/09 04:06:44;;;;;;;3.77;2.93;;;3.90;97.60;;;;;;5053225;28;20180;-60
2024/03/09 04:09:13;;;;;;;6.50;4.78;;;3.80;98.00;;;;;;5052912;28;20189;-60
2024/03/09 04:11:39;;;;;;;4.60;3.88;;;3.80;98.10;;;;;;5053352;28;20665;-60
2024/03/09 04:14:04;;;;;;;4.97;3.10;;;3.70;98.00;;;;;;5053369;28;20249;-60
2024/03/09 04:16:30;;;;;;;6.57;3.50;;;3.50;98.10;;;;;;5053051;28;20413;-60
2024/03/09 04:18:55;;;;;;;8.23;3.30;;;3.50;98.60;;;;;;5052565;28;20251;-60
2024/03/09 04:21:22;;;;;;;6.20;3.90;;;3.50;98.60;;;;;;5053005;28;20265;-60
2024/03/09 04:23:49;;;;;;;6.90;4.30;;;3.50;98.50;;;;;;5052885;28;20253;-60
2024/03/09 04:26:15;;;;;;;7.32;5.45;;;3.50;98.40;;;;;;5052782;28;20215;-60
2024/03/09 04:28:43;;;;;;;5.17;4.00;;;3.60;98.30;;;;;;5052537;28;20205;-60
2024/03/09 04:31:09;;;;;;;7.45;4.22;;;3.60;98.40;;;;;;5052812;28;20758;-60
2024/03/09 04:33:35;;;;;;;5.25;3.28;;;3.60;98.40;;;;;;5052707;28;20201;-60
2024/03/09 04:36:06;;;;;;;4.22;3.08;;;3.60;98.40;;;;;;5052662;28;20683;-60
2024/03/09 04:38:32;;;;;;;5.18;3.75;;;3.50;98.50;;;;;;5052135;28;20197;-60
2024/03/09 04:40:58;;;;;;;6.20;3.78;;;3.50;98.70;;;;;;5052568;28;20178;-60
2024/03/09 04:43:26;;;;;;;3.77;3.20;;;3.50;98.70;;;;;;5052534;28;20165;-59
2024/03/09 04:45:55;;;;;;;5.72;4.15;;;3.30;98.70;;;;;;5052473;28;20661;-60
2024/03/09 04:48:21;;;;;;;5.20;3.45;;;3.30;98.80;;;;;;5051904;28;20175;-60
2024/03/09 04:50:51;;;;;;;4.50;3.03;;;3.30;99.00;;;;;;5085562;22;20232;-60
2024/03/09 04:53:18;;;;;;;5.63;2.97;;;3.30;98.90;;;;;;5072034;28;20506;-60
2024/03/09 04:55:48;;;;;;;3.17;2.15;;;3.30;99.20;;;;;;5072006;28;20263;-60
2024/03/09 04:58:13;;;;;;;4.90;2.95;;;3.30;99.20;;;;;;5071585;28;20235;-60
2024/03/09 05:00:40;;;;;;;3.70;2.23;;;3.40;99.40;;;;;;5071892;28;20194;-60
2024/03/09 05:03:06;;;;;;;3.80;3.40;;;3.40;99.50;;;;;;5071867;28;20404;-60
2024/03/09 05:05:32;;;;;;;3.63;2.00;;;3.30;99.30;;;;;;5071992;28;20264;-60
2024/03/09 05:07:58;;;;;;;3.65;2.22;;;3.30;99.20;;;;;;5071411;28;20627;-60
2024/03/09 05:10:24;;;;;;;4.50;3.07;;;3.20;99.30;;;;;;5071372;28;20281;-60
2024/03/09 05:12:54;;;;;;;7.60;2.10;;;3.20;99.20;;;;;;5071836;28;20604;-60
2024/03/09 05:15:31;;;;;;;5.00;2.95;;;3.20;99.30;;;;;;5071906;28;20205;-60
2024/03/09 05:17:59;;;;;;;4.38;2.97;;;3.10;99.40;;;;;;5071332;28;20212;-60
2024/03/09 05:20:27;;;;;;;5.15;2.92;;;3.00;99.50;;;;;;5071680;28;20596;-60
2024/03/09 05:22:53;;;;;;;9.60;5.20;;;3.00;99.60;;;;;;5071362;28;20268;-60
2024/03/09 05:25:21;;;;;;;7.82;4.10;;;2.90;99.90;;;;;;5071592;28;20681;-60
2024/03/09 05:27:47;;;;;;;3.92;2.78;;;2.90;99.90;;;;;;5071119;28;20197;-61
2024/03/09 05:30:15;;;;;;;5.05;2.65;;;3.10;99.90;;;;;;5071488;28;20223;-60
2024/03/09 05:33:28;;;;;;;4.55;2.47;;;3.10;99.90;;;;;;5071413;28;20190;-61
2024/03/09 05:35:35;;;;;;;6.45;3.15;;;3.00;99.70;;;;;;5060536;28;20595;-60
2024/03/09 05:38:04;;;;;;;5.40;3.23;;;3.00;99.70;;;;;;5070995;28;20228;-60
2024/03/09 05:40:30;;;;;;;7.13;4.18;;;2.90;99.90;;;;;;5071122;28;20182;-60
2024/03/09 05:42:58;;;;;;;5.70;3.22;;;2.90;99.60;;;;;;5071284;28;20542;-60
2024/03/09 05:45:24;;;;;;;8.18;4.13;;;2.90;99.70;;;;;;5071222;28;20195;-61
2024/03/09 05:47:57;;;;;;;7.87;4.63;;;3.00;99.90;;;;;;5070940;28;20663;-60
2024/03/09 05:50:30;;;;;;;3.17;2.85;;;3.00;99.90;;;;;;5071192;28;20446;-60
2024/03/09 05:52:58;;;;;;;2.88;2.60;;;3.00;99.90;;;;;;5071091;28;20272;-60
2024/03/09 05:55:24;;;;;;;13.80;7.18;;;3.10;99.90;;;;;;5071221;28;20557;-60
2024/03/09 05:57:52;;;;;;;11.35;4.65;;;3.20;99.90;;;;;;5070840;28;20362;-60
2024/03/09 06:00:19;;;;;;;9.65;4.15;;;3.20;99.80;;;;;;5070906;28;20194;-60
2024/03/09 06:02:48;;;;;;;4.70;3.25;;;3.20;99.70;;;;;;5070857;28;20166;-61
2024/03/09 06:05:14;;;;;;;3.13;2.33;;;3.20;99.90;;;;;;5071112;28;20355;-61
2024/03/09 06:07:42;;;;;;;5.38;4.18;;;3.30;99.90;;;;;;5070851;28;20318;-60
2024/03/09 06:10:13;;;;;;;5.05;3.30;;;3.30;99.90;;;;;;5071182;28;20197;-60
2024/03/09 06:12:41;;;;;;;3.97;2.28;;;3.40;99.90;;;;;;5070913;28;20662;-61
2024/03/09 06:15:08;;;;;;;7.03;2.85;;;3.30;99.90;;;;;;5070771;28;20165;-60
2024/03/09 06:17:33;;;;;;;3.47;2.58;;;3.40;99.90;;;;;;5071040;28;20254;-60
2024/03/09 06:20:02;;;;;;;3.93;2.40;;;3.50;99.90;;;;;;5070686;28;20190;-60
2024/03/09 06:22:32;;;;;;;5.03;2.13;;;3.60;99.80;;;;;;5072914;28;20169;-61
2024/03/09 06:24:58;;;;;;;4.82;2.72;;;3.70;99.50;;;;;;5075021;28;20173;-61
2024/03/09 06:27:24;;;;;;;2.30;1.77;;;3.60;99.30;;;;;;5074817;28;20646;-61
2024/03/09 06:29:49;;;;;;;2.97;2.67;;;3.60;99.50;;;;;;5074510;28;20196;-60
2024/03/09 06:32:15;;;;;;;3.97;3.57;;;3.70;99.40;;;;;;5074792;28;20177;-60
2024/03/09 06:34:42;;;;;;;4.30;3.90;;;3.80;99.30;;;;;;5074817;28;20587;-61
2024/03/09 06:37:09;;;;;;;6.15;2.67;;;3.70;98.90;;;;;;5074734;28;20720;-60
2024/03/09 06:39:37;;;;;;;4.00;2.90;;;3.60;99.00;;;;;;5074317;28;20217;-60
2024/03/09 06:42:03;;;;;;;4.13;2.03;;;3.70;99.40;;;;;;5074513;28;20181;-60
2024/03/09 06:44:29;;;;;;;3.78;2.20;;;3.70;99.30;;;;;;5074497;28;20177;-61
2024/03/09 06:46:54;;;;;;;2.70;2.10;;;3.80;99.20;;;;;;5074764;28;20172;-60
2024/03/09 06:49:21;;;;;;;1.90;1.80;;;3.90;99.10;;;;;;5074029;28;20382;-61
2024/03/09 06:51:46;;;;;;;2.97;1.95;;;4.00;99.30;;;;;;5074157;28;20181;-61
2024/03/09 06:54:12;;;;;;;6.23;2.40;;;3.90;99.20;;;;;;5068452;28;20197;-60
2024/03/09 06:56:38;;;;;;;2.73;2.30;;;4.00;99.40;;;;;;5073803;28;20229;-60
2024/03/09 06:59:07;;;;;;;4.10;2.47;;;4.00;99.20;;;;;;5073916;28;20418;-60
2024/03/09 07:01:34;;;;;;;2.08;1.88;;;4.20;99.30;;;;;;5074147;28;20177;-61
2024/03/09 07:04:03;;;;;;;3.38;2.45;;;4.40;98.80;;;;;;5074112;28;20722;-61
2024/03/09 07:06:29;;;;;;;8.98;3.63;;;4.70;98.40;;;;;;5074133;28;20174;-61
2024/03/09 07:08:57;;;;;;;6.18;3.10;;;5.00;97.70;;;;;;5073813;28;20182;-60
2024/03/09 07:11:25;;;;;;;4.03;2.38;;;5.20;96.30;;;;;;5073866;28;20232;-61
2024/03/09 07:13:51;;;;;;;2.42;2.22;;;5.90;96.20;;;;;;5074113;28;20185;-61
2024/03/09 07:16:16;;;;;;;3.88;2.80;;;7.40;94.10;;;;;;5055759;28;20174;-61
2024/03/09 07:18:45;;;;;;;8.27;2.10;;;9.70;91.80;;;;;;5073578;28;20250;-62
2024/03/09 07:21:11;;;;;;;2.73;2.33;;;11.80;82.90;;;;;;5073887;28;20204;-62
2024/03/09 07:23:37;;;;;;;2.40;2.20;;;13.90;75.10;;;;;;5073770;28;20784;-61
2024/03/09 07:26:06;;;;;;;3.23;2.30;;;15.90;67.30;;;;;;5073960;28;20498;-61
2024/03/09 07:28:31;;;;;;;3.57;2.80;;;17.70;59.90;;;;;;5073390;28;20186;-62
2024/03/09 07:30:57;;;;;;;2.70;2.07;;;19.70;55.20;;;;;;5073795;28;20432;-62
2024/03/09 07:33:22;;;;;;;3.13;2.50;;;20.40;48.00;;;;;;5073623;28;20178;-62
2024/03/09 07:35:51;;;;;;;2.23;2.13;;;21.10;43.70;;;;;;5073702;28;20661;-61
2024/03/09 07:38:17;;;;;;;2.60;2.00;;;21.20;42.70;;;;;;5073189;28;20216;-62
2024/03/09 07:40:43;;;;;;;3.13;2.53;;;20.80;44.00;;;;;;5073858;28;20797;-62
2024/03/09 07:43:13;;;;;;;3.53;2.90;;;22.00;44.30;;;;;;5073728;28;20185;-62
2024/03/09 07:45:38;;;;;;;3.87;3.50;;;23.30;40.20;;;;;;5073532;28;20444;-62
2024/03/09 07:48:04;;;;;;;2.77;2.50;;;24.00;38.80;;;;;;5073218;28;20443;-63
2024/03/09 07:50:32;;;;;;;3.33;2.70;;;23.90;38.80;;;;;;5073388;28;20234;-62
2024/03/09 07:52:58;;;;;;;2.77;2.20;;;24.70;38.20;;;;;;5073295;28;20416;-62
2024/03/09 07:55:26;;;;;;;5.23;2.87;;;25.20;36.60;;;;;;5073541;28;20942;-62
2024/03/09 07:57:55;;;;;;;3.57;3.10;;;24.60;34.60;;;;;;5072947;28;20740;-62
2024/03/09 08:00:22;;;;;;;4.00;3.60;;;24.10;36.30;;;;;;5067802;28;20431;-62
2024/03/09 08:02:49;;;;;;;3.40;2.70;;;23.20;34.90;;;;;;5073264;28;20498;-62
2024/03/09 08:05:20;;;;;;;3.50;2.93;;;23.10;36.90;;;;;;5073182;28;20418;-62
2024/03/09 08:07:47;;;;;;;2.43;2.20;;;23.50;36.10;;;;;;5072937;28;20396;-62
2024/03/09 08:10:19;;;;;;;3.50;3.00;;;24.30;36.50;;;;;;5073032;28;20435;-62
2024/03/09 08:12:46;;;;;;;3.77;3.03;;;25.00;34.50;;;;;;5073027;28;20404;-62
2024/03/09 08:15:12;;;;;;;3.60;3.30;;;25.40;33.90;;;;;;5073078;28;20889;-62
2024/03/09 08:17:42;;;;;;;3.10;2.80;;;25.70;34.10;;;;;;5072717;28;20944;-62
2024/03/09 08:20:08;;;;;;;3.57;2.60;;;25.10;33.80;;;;;;5072527;28;20901;-62
2024/03/09 08:22:39;;;;;;;3.83;3.10;;;24.40;34.00;;;;;;5072800;28;20757;-62
2024/03/09 08:25:07;;;;;;;4.40;3.30;;;23.50;33.10;;;;;;5073088;28;20411;-62
2024/03/09 08:27:37;;;;;;;4.30;3.20;;;22.60;35.20;;;;;;5072775;28;20447;-62
2024/03/09 08:30:07;;;;;;;3.00;2.60;;;22.10;35.40;;;;;;5072518;28;20428;-62
2024/03/09 08:32:35;;;;;;;3.00;2.23;;;21.50;35.10;;;;;;5072532;28;20406;-62
2024/03/09 08:35:08;;;;;;;4.13;2.83;;;20.90;36.20;;;;;;5072805;28;21073;-61
2024/03/09 08:37:38;;;;;;;4.90;4.40;;;20.10;37.00;;;;;;5072317;28;20887;-62
2024/03/09 08:40:06;;;;;;;3.23;2.97;;;20.10;37.90;;;;;;5072373;28;20866;-62
2024/03/09 08:42:33;;;;;;;6.70;3.10;;;20.20;36.60;;;;;;5072460;28;20386;-62
2024/03/09 08:44:59;;;;;;;4.10;2.90;;;21.30;36.60;;;;;;5071721;28;20418;-62
2024/03/09 08:47:25;;;;;;;3.67;3.20;;;22.30;35.80;;;;;;5072302;28;20466;-62
2024/03/09 08:49:50;;;;;;;3.20;2.77;;;22.90;34.50;;;;;;5071918;28;20266;-62
2024/03/09 08:52:16;;;;;;;2.27;2.07;;;23.10;33.60;;;;;;5072178;28;20378;-62
2024/03/09 08:54:43;;;;;;;2.20;2.00;;;23.10;33.20;;;;;;5072208;28;20181;-62
2024/03/09 08:57:11;;;;;;;4.87;2.17;;;23.50;33.70;;;;;;5072013;28;20170;-62
2024/03/09 08:59:51;;;;;;;3.30;2.23;;;24.00;33.40;;;;;;5071623;28;20431;-62
2024/03/09 09:02:22;;;;;;;1.60;1.50;;;24.60;32.10;;;;;;5072231;28;20783;-62
2024/03/09 09:04:48;;;;;;;2.53;1.97;;;25.50;31.40;;;;;;5072124;28;20848;-62
2024/03/09 09:07:15;;;;;;;2.70;2.50;;;26.00;30.00;;;;;;5072030;28;20889;-62
2024/03/09 09:09:42;;;;;;;2.90;2.37;;;25.50;29.60;;;;;;5071505;28;21016;-62
2024/03/09 09:12:10;;;;;;;3.33;2.67;;;24.70;29.70;;;;;;5071732;28;20904;-62
2024/03/09 09:14:41;;;;;;;8.93;6.37;;;24.90;30.90;;;;;;5072263;28;20784;-61
2024/03/09 09:17:08;;;;;;;3.07;2.70;;;25.50;30.40;;;;;;5071953;28;20457;-62
2024/03/09 09:19:34;;;;;;;2.90;1.93;;;25.10;28.80;;;;;;5071726;28;20432;-62
2024/03/09 09:22:00;;;;;;;3.00;2.70;;;24.50;29.50;;;;;;5071945;28;20486;-61
2024/03/09 09:24:26;;;;;;;3.40;1.83;;;24.00;30.40;;;;;;5071760;28;20998;-62
2024/03/09 09:26:52;;;;;;;2.13;1.70;;;23.50;29.90;;;;;;5071819;28;20750;-62
2024/03/09 09:29:17;;;;;;;2.20;1.90;;;23.00;31.00;;;;;;5071389;28;20256;-62
2024/03/09 09:31:43;;;;;;;2.03;1.23;;;22.40;30.50;;;;;;5071881;28;20176;-62
2024/03/09 09:34:10;;;;;;;2.23;1.73;;;20.50;31.90;;;;;;5071745;28;20177;-61
2024/03/09 09:36:37;;;;;;;1.67;1.57;;;19.00;33.30;;;;;;5071786;28;20184;-61
2024/03/09 09:39:03;;;;;;;1.93;1.80;;;16.80;35.70;;;;;;5071255;28;20584;-61
2024/03/09 09:41:29;;;;;;;1.70;1.40;;;15.70;38.20;;;;;;5071548;28;20424;-61
2024/03/09 09:43:58;;;;;;;3.17;2.10;;;16.40;38.50;;;;;;5071655;28;21130;-61
2024/03/09 09:46:29;;;;;;;1.50;1.40;;;17.70;36.40;;;;;;5071482;28;20415;-62
2024/03/09 09:48:55;;;;;;;3.60;2.50;;;18.70;34.80;;;;;;5071364;28;20415;-62
2024/03/09 09:51:25;;;;;;;3.30;1.83;;;20.00;33.70;;;;;;5071491;28;20437;-62
2024/03/09 09:53:54;;;;;;;1.63;1.47;;;20.90;33.00;;;;;;5071387;28;20393;-62
2024/03/09 09:56:23;;;;;;;2.13;1.93;;;21.70;33.40;;;;;;5070563;28;20415;-62
2024/03/09 09:58:49;;;;;;;2.33;1.20;;;21.80;32.30;;;;;;5071177;28;20458;-63
2024/03/09 10:01:21;;;;;;;2.10;2.00;;;22.70;31.70;;;;;;5071320;28;20453;-64
2024/03/09 10:03:47;;;;;;;2.67;2.20;;;22.50;30.50;;;;;;5071436;28;20419;-63
2024/03/09 10:06:21;;;;;;;2.63;1.90;;;21.10;31.60;;;;;;5071358;28;20501;-64
2024/03/09 10:08:48;;;;;;;2.10;1.77;;;20.60;33.70;;;;;;5071106;28;20498;-63
2024/03/09 10:11:17;;;;;;;3.13;2.33;;;20.80;33.20;;;;;;5071308;28;20467;-64
2024/03/09 10:13:43;;;;;;;2.47;2.10;;;21.10;34.40;;;;;;5071270;28;20749;-64
2024/03/09 10:16:12;;;;;;;2.03;1.80;;;20.80;32.80;;;;;;5071305;28;20397;-63
2024/03/09 10:18:45;;;;;;;3.10;1.87;;;19.90;32.50;;;;;;5052807;28;20840;-63
2024/03/09 10:21:11;;;;;;;1.90;1.80;;;18.80;33.70;;;;;;5071389;28;20790;-64
2024/03/09 10:23:37;;;;;;;2.10;1.77;;;18.10;35.90;;;;;;5071307;28;20410;-64
2024/03/09 10:26:07;;;;;;;1.80;1.60;;;17.10;35.10;;;;;;5071190;28;20411;-63
2024/03/09 10:28:39;;;;;;;2.13;1.60;;;16.20;36.80;;;;;;5070955;28;20521;-63
2024/03/09 10:31:06;;;;;;;1.47;1.37;;;15.50;37.70;;;;;;5071005;28;20462;-63
2024/03/09 10:33:36;;;;;;;2.40;1.67;;;15.10;37.90;;;;;;5071105;28;20508;-63
2024/03/09 10:36:03;;;;;;;1.50;1.20;;;14.50;37.30;;;;;;5071136;28;20403;-63
2024/03/09 10:38:30;;;;;;;1.40;1.30;;;14.10;38.80;;;;;;5070736;28;20952;-63
2024/03/09 10:40:57;;;;;;;1.30;1.20;;;13.40;39.90;;;;;;5070941;28;20953;-63
2024/03/09 10:43:23;;;;;;;2.33;1.50;;;13.10;40.60;;;;;;5071015;28;20407;-63
2024/03/09 10:45:56;;;;;;;2.07;1.83;;;13.20;41.50;;;;;;5070887;28;20468;-63
2024/03/09 10:48:24;;;;;;;2.07;1.30;;;13.50;42.00;;;;;;5070873;28;20411;-63
2024/03/09 10:51:04;;;;;;;1.13;1.03;;;13.60;40.80;;;;;;5091596;22;20483;-61
2024/03/09 10:53:36;;;;;;;2.03;1.53;;;13.70;40.50;;;;;;5070818;28;20823;-61
2024/03/09 10:56:22;;;;;;;2.10;1.90;;;13.90;40.90;;;;;;5070991;28;20399;-61
2024/03/09 10:58:52;;;;;;;1.63;1.30;;;14.40;41.80;;;;;;5070582;28;20572;-61
2024/03/09 11:01:21;;;;;;;2.43;2.23;;;14.90;40.90;;;;;;5069778;28;20874;-61
2024/03/09 11:03:49;;;;;;;1.83;1.50;;;15.20;40.80;;;;;;5032484;28;20914;-61
2024/03/09 11:06:18;;;;;;;1.43;1.30;;;15.50;39.30;;;;;;5050384;28;20428;-61
2024/03/09 11:08:48;;;;;;;2.80;1.70;;;15.40;38.60;;;;;;5052609;28;20897;-61
2024/03/09 11:11:26;;;;;;;2.00;1.60;;;15.80;38.90;;;;;;5054473;28;20426;-61
2024/03/09 11:13:53;;;;;;;1.77;1.23;;;16.00;39.00;;;;;;5054392;28;20909;-61
2024/03/09 11:16:24;;;;;;;0.73;0.70;;;16.20;39.00;;;;;;5053070;28;20413;-61
2024/03/09 11:18:56;;;;;;;1.83;1.37;;;16.40;37.40;;;;;;5053187;28;20451;-61
2024/03/09 11:21:29;;;;;;;1.07;0.90;;;15.80;36.70;;;;;;5053566;28;20443;-61
2024/03/09 11:24:07;;;;;;;1.07;0.83;;;15.90;36.70;;;;;;5054329;28;20403;-61
2024/03/09 11:26:40;;;;;;;1.53;1.30;;;15.40;37.40;;;;;;5054026;28;20498;-61
2024/03/09 11:29:10;;;;;;;1.40;1.00;;;15.10;37.00;;;;;;5053949;28;20412;-61
2024/03/09 11:31:39;;;;;;;1.37;1.00;;;15.10;37.90;;;;;;5054035;28;20428;-61
2024/03/09 11:34:06;;;;;;;0.77;0.53;;;15.10;38.30;;;;;;5053986;28;20499;-61
2024/03/09 11:37:04;;;;;;;1.03;0.60;;;14.60;37.00;;;;;;5054202;28;20897;-61
2024/03/09 11:39:31;;;;;;;0.80;0.80;;;14.40;37.80;;;;;;5053552;28;20430;-61
2024/03/09 11:42:01;;;;;;;1.20;1.03;;;14.10;37.90;;;;;;5053679;28;20791;-61
2024/03/09 11:44:43;;;;;;;3.33;1.10;;;14.20;38.20;;;;;;5053894;28;20412;-61
2024/03/09 11:47:11;;;;;;;1.30;1.20;;;14.20;37.00;;;;;;5053785;28;20467;-61
2024/03/09 11:49:39;;;;;;;1.00;1.00;;;14.70;38.50;;;;;;5053479;28;20400;-61
2024/03/09 11:52:08;;;;;;;1.13;1.00;;;15.10;38.00;;;;;;5053524;28;20416;-61
2024/03/09 11:54:35;;;;;;;1.33;0.77;;;15.10;37.20;;;;;;5053316;28;20435;-61
2024/03/09 11:57:01;;;;;;;1.30;1.20;;;14.70;36.60;;;;;;5053559;28;20405;-61
2024/03/09 11:59:27;;;;;;;0.60;0.60;;;14.60;36.90;;;;;;5053311;28;20423;-61
2024/03/09 12:02:00;;;;;;;0.47;0.47;;;14.30;36.70;;;;;;5035410;28;20465;-61
2024/03/09 12:04:32;;;;;;;0.90;0.90;;;14.00;35.00;;;;;;5053489;28;20207;-61
2024/03/09 12:07:02;;;;;;;0.90;0.60;;;14.20;36.80;;;;;;5053349;28;20405;-61
2024/03/09 12:09:29;;;;;;;1.10;0.73;;;14.50;37.90;;;;;;5052932;28;20783;-61
2024/03/09 12:11:55;;;;;;;0.80;0.80;;;14.90;37.20;;;;;;5053301;28;20944;-61
2024/03/09 12:14:20;;;;;;;0.60;0.60;;;15.20;36.20;;;;;;5053315;28;20408;-61
2024/03/09 12:16:50;;;;;;;0.93;0.83;;;15.20;35.90;;;;;;5053341;28;20929;-61
2024/03/09 12:19:16;;;;;;;2.10;0.50;;;14.80;35.60;;;;;;5051895;28;20230;-61
2024/03/09 12:21:44;;;;;;;0.80;0.50;;;14.70;35.10;;;;;;5052908;28;20441;-61
2024/03/09 12:24:12;;;;;;;1.67;1.03;;;14.20;35.80;;;;;;5053282;28;20797;-61
2024/03/09 12:26:38;;;;;;;0.60;0.50;;;14.40;35.90;;;;;;5053187;28;20798;-61
2024/03/09 12:29:05;;;;;;;0.73;0.73;;;14.70;36.40;;;;;;5052680;28;20409;-61
2024/03/09 12:31:32;;;;;;;0.73;0.70;;;15.00;36.60;;;;;;5052559;28;20219;-61
2024/03/09 12:33:58;;;;;;;0.40;0.40;;;15.10;35.60;;;;;;5052947;28;20817;-61
2024/03/09 12:36:24;;;;;;;0.87;0.87;;;15.00;38.90;;;;;;5052836;28;20413;-61
2024/03/09 12:38:51;;;;;;;0.43;0.43;;;14.90;36.60;;;;;;5052623;28;20209;-61
2024/03/09 12:41:28;;;;;;;0.60;0.60;;;14.80;35.50;;;;;;5052455;28;20501;-61
2024/03/09 12:43:59;;;;;;;1.03;0.90;;;14.80;35.60;;;;;;5052664;28;20435;-61
2024/03/09 12:46:28;;;;;;;0.90;0.90;;;14.10;35.30;;;;;;5052579;28;20832;-61
2024/03/09 12:48:57;;;;;;;0.77;0.60;;;13.80;35.50;;;;;;5052163;28;20447;-61
2024/03/09 12:51:23;;;;;;;0.50;0.50;;;13.30;36.00;;;;;;5052396;28;20454;-61
2024/03/09 12:53:57;;;;;;;0.60;0.60;;;13.40;36.50;;;;;;5052515;28;20412;-61
2024/03/09 12:56:30;;;;;;;0.77;0.63;;;13.30;37.20;;;;;;5052532;28;20902;-61
2024/03/09 12:59:02;;;;;;;1.23;0.67;;;13.30;38.00;;;;;;5052216;28;20451;-61